Terminal Aerodrome Forecast
Issued by NWS Boston, MA

Home | Current Version | Previous Version | Text Only | Print | Product List | Glossary On
Versions: 1 2 3 4 5 6 7 8 9 10 11 12 13 14 15 16 17 18 19 20 21 22 23 24 25 26 27 28 29 30 31 32 33 34 35 36 37 38 39 40 41 42 43 44 45 46
526
FTUS41 KBOX 111128
TAFBDL
TAF
KBDL 111128Z 1112/1218 28006KT 6SM -SN OVC050
     FM111400 28010G18KT P6SM VCSH BKN060
     FM112100 30012G26KT P6SM BKN045
     FM120000 30012G26KT P6SM SCT250
     FM120600 30008KT P6SM FEW250
     FM121000 27004KT P6SM FEW250=

USA.gov is the U.S. government's official web portal to all federal, state and local government web resources and services.